< < Back
Terminal Aerodrome Forecast


Current Version              Previous Versions:   1  2  3  4  5  6  7  8  9  

Terminal Aerodrome Forecast

976
FTUS42 KGSP 222300
TAFAVL
TAF
KAVL 222336Z 2300/2324 34003KT P6SM SCT050 BKN250
     FM230500 34003KT P6SM SCT120 BKN250
      TEMPO 2310/2313 5SM BR
     FM231300 34005KT P6SM SCT050 BKN120
     FM231600 34006KT P6SM BKN050 PROB30 2316/2322 4SM TSRA
      BKN040CB=

Latest METAR

132
SAUS70 KWBC 231300 RRI
MTRAVL
METAR KAVL 231254Z 01006KT 10SM CLR 24/19 A3008 RMK AO2 SLP156
T02390189


USA.gov is the U.S. government's official web portal to all federal, state and local government web resources and services.